KMOR/MOR METAR and TAF weather

Enter ICAO airport designator
Station Type Date Time Source
KMOR METAR 2020/05/29 20:15 UTC NOAA

KMOR 292015Z AUTO 27009G15KT 10SM OVC110 27/16 A2998 RMK A01


Station Type Date Time Source
KMOR Decoded METAR 2020/05/29 20:15 UTC NOAA

Station name not available
May 29, 2020 - 04:15 PM EDT / 2020.05.29 2015 UTC
Wind: from the W (270 degrees) at 10 MPH (9 KT) gusting to 17 MPH (15 KT):0
Visibility: 10 mile(s):0
Sky conditions: overcast
Temperature: 80 F (27 C)
Dew Point: 60 F (16 C)
Relative Humidity: 50%
Pressure (altimeter): 29.98 in. Hg (1015 hPa)
ob: KMOR 292015Z AUTO 27009G15KT 10SM OVC110 27/16 A2998 RMK A01
cycle: 20

Station Type Date Time Source
KMOR TAF UTC NOAA

Error!

Example: see airport list